Voyager — C6WC2 — position and weather

sailwx.info

Track history (hours):
 
Tides and Currents Weather Stations Pressure Air Temp Water Temp Dewpoint Dewpoint Depression Visibility Wind Speed Wind Dir Waves Ship Positions

Voyager

Last reported at 2016-Jul-27 05:25 UTC. Time now 2016-Jul-27 07:52 UTC.
Position N 54°18' E 009°42'.

Length 151 m; draft 6.1 m.

Type: Ship. MMSI: 309695000.

Date/timePositionNaut miles runAvg speedWind from/ knotsBaromVisibWave heightAir tempDewpointWater temp
2016-Jul-27 05:25N 54°18' E 009°42'7 7.1
2016-Jul-27 04:25N 54°21' E 009°53'6 7.0
2016-Jul-27 03:34N 54°22' E 010°03'3 3.3
2016-Jul-27 02:33N 54°22' E 010°09'9 9.2
2016-Jul-27 01:33N 54°30' E 010°17'1212.2
2016-Jul-27 00:33N 54°35' E 010°36'1413.6
2016-Jul-26 23:34N 54°36' E 010°60'1313.2
2016-Jul-26 22:33N 54°33' E 011°22'1414.1
2016-Jul-26 21:34N 54°27' E 011°44'1414.1
2016-Jul-26 20:34N 54°17' E 012°00'7 3.4
2016-Jul-26 18:33N 54°11' E 012°06'0 0.0
2016-Jul-26 17:33N 54°11' E 012°06'0 0.0
2016-Jul-26 16:33N 54°11' E 012°06'0 0.0
2016-Jul-26 15:30N 54°11' E 012°06'0 0.0
2016-Jul-26 14:27N 54°11' E 012°06'0 0.0
2016-Jul-26 12:33N 54°11' E 012°06'0 0.0
2016-Jul-26 11:33N 54°11' E 012°06'0 0.0
2016-Jul-26 07:33N 54°11' E 012°06'3 2.5
2016-Jul-26 06:26N 54°13' E 012°03'1010.9
2016-Jul-26 05:34N 54°22' E 011°59'1211.7
2016-Jul-26 04:33N 54°31' E 012°11'1513.3
2016-Jul-26 03:24N 54°43' E 012°29'1515.0
2016-Jul-26 02:24N 54°50' E 012°52'1315.7
2016-Jul-26 01:33N 54°53' E 013°14'1616.4
2016-Jul-26 00:33N 54°47' E 013°41'1716.6
2016-Jul-25 23:33N 54°41' E 014°08'1616.3
2016-Jul-25 22:34N 54°39' E 014°36'1716.5
2016-Jul-25 21:33N 54°41' E 015°04'1616.4
2016-Jul-25 20:33N 54°44' E 015°32'1616.4
2016-Jul-25 19:33N 54°46' E 016°00'1616.2
2016-Jul-25 18:33N 54°49' E 016°28'1616.1
2016-Jul-25 17:33N 54°52' E 016°55'1616.4
2016-Jul-25 16:33N 54°56' E 017°23'1616.3
2016-Jul-25 15:34N 54°59' E 017°51'1716.6
2016-Jul-25 14:33N 54°60' E 018°20'1616.2
2016-Jul-25 13:33N 54°52' E 018°45'1414.2
2016-Jul-25 12:33N 54°40' E 018°57'1615.8
2016-Jul-25 11:33N 54°27' E 018°41'3 2.7
2016-Jul-25 10:32N 54°24' E 018°40'0 0.0
2016-Jul-25 09:32N 54°24' E 018°40'0 0.0
2016-Jul-25 08:32N 54°24' E 018°40'0 0.0
2016-Jul-25 07:32N 54°24' E 018°40'0 0.0
2016-Jul-25 06:32N 54°24' E 018°40'0 0.0
2016-Jul-25 05:32N 54°24' E 018°40'0 0.0
2016-Jul-25 04:32N 54°24' E 018°40'2 1.8
2016-Jul-25 03:34N 54°26' E 018°39'9 8.6
2016-Jul-25 02:33N 54°33' E 018°48'1010.0
2016-Jul-25 01:33N 54°41' E 018°57'1110.7
2016-Jul-25 00:33N 54°51' E 019°04'1110.6
2016-Jul-24 23:33N 55°02' E 019°08'1110.8
2016-Jul-24 22:33N 55°12' E 019°14'1110.9
2016-Jul-24 21:32N 55°22' E 019°20'1211.1
2016-Jul-24 20:28N 55°34' E 019°26'1010.9
2016-Jul-24 19:32N 55°43' E 019°32'23611.2
2016-Jul-23 22:33N 59°23' E 022°12'1111.6
2016-Jul-23 21:33N 59°29' E 022°31'1111.4
2016-Jul-23 20:33N 59°34' E 022°51'1111.5
2016-Jul-23 19:33N 59°37' E 023°13'10 9.7
2016-Jul-23 18:33N 59°32' E 023°30'2811.4
2016-Jul-23 16:06N 59°30' E 024°25'5 9.3
2016-Jul-23 15:34N 59°30' E 024°35'7 6.5
2016-Jul-23 14:33N 59°27' E 024°46'0 0.0
2016-Jul-23 13:27N 59°27' E 024°46'0 0.0
2016-Jul-23 12:03N 59°27' E 024°46'0 0.0
2016-Jul-23 11:27N 59°27' E 024°46'0 0.0
2016-Jul-23 10:27N 59°27' E 024°46'0 0.0
2016-Jul-23 09:33N 59°27' E 024°46'0 0.0
2016-Jul-23 08:27N 59°27' E 024°46'0 0.0
2016-Jul-23 07:33N 59°27' E 024°46'2 1.8
2016-Jul-23 06:34N 59°29' E 024°45'5212.5
2016-Jul-23 02:23N 59°59' E 026°10'1315.8
2016-Jul-23 01:33N 60°01' E 026°35'1715.4
2016-Jul-23 00:29N 60°01' E 027°08'1516.0
2016-Jul-22 23:31N 60°09' E 027°35'1415.0
2016-Jul-22 22:33N 60°10' E 028°03'1515.4
2016-Jul-22 21:33N 60°03' E 028°31'1615.7
2016-Jul-22 20:33N 60°03' E 029°03'2013.8
2016-Jul-22 19:05N 59°59' E 029°43'5 9.3
2016-Jul-22 18:33N 59°57' E 029°52'10 9.9
2016-Jul-22 17:33N 59°53' E 030°10'4 4.1
2016-Jul-22 16:33N 59°56' E 030°17'0 0.1
2016-Jul-22 15:32N 59°56' E 030°16'0 0.0
2016-Jul-22 14:32N 59°56' E 030°16'0 0.0
2016-Jul-22 13:32N 59°56' E 030°16'0 0.0
2016-Jul-22 12:32N 59°56' E 030°16'0 0.0
2016-Jul-22 11:32N 59°56' E 030°16'0 0.0
2016-Jul-22 10:32N 59°56' E 030°16'0 0.0
2016-Jul-22 09:32N 59°56' E 030°16'0 0.0
2016-Jul-22 08:32N 59°56' E 030°16'0 0.0
2016-Jul-22 07:32N 59°56' E 030°16'0 0.0
2016-Jul-22 04:32N 59°56' E 030°16'0 0.0
2016-Jul-22 03:32N 59°56' E 030°16'0 0.0
2016-Jul-22 02:32N 59°56' E 030°16'0 0.0
2016-Jul-22 01:32N 59°56' E 030°16'0 0.0
2016-Jul-22 00:32N 59°56' E 030°16'0 0.0
2016-Jul-21 23:32N 59°56' E 030°16'0 0.0
2016-Jul-21 22:32N 59°56' E 030°16'0 0.0
2016-Jul-21 21:32N 59°56' E 030°16'0 0.0
2016-Jul-21 20:32N 59°56' E 030°16'0 0.0
2016-Jul-21 19:32N 59°56' E 030°16'0 0.0
2016-Jul-21 18:32N 59°56' E 030°16'0 0.0
2016-Jul-21 17:32N 59°56' E 030°16'0 0.0
2016-Jul-21 16:32N 59°56' E 030°16'0 0.0
2016-Jul-21 15:32N 59°56' E 030°16'0 0.0
2016-Jul-21 14:32N 59°56' E 030°16'0 0.0
2016-Jul-21 13:32N 59°56' E 030°16'0 0.0
2016-Jul-21 12:32N 59°56' E 030°16'0 0.0
2016-Jul-21 11:32N 59°56' E 030°16'0 0.0
2016-Jul-21 10:32N 59°56' E 030°16'0 0.0
2016-Jul-21 09:32N 59°56' E 030°16'0 0.0
2016-Jul-21 08:32N 59°56' E 030°16'0 0.0
2016-Jul-21 07:32N 59°56' E 030°16'0 0.0
2016-Jul-21 06:32N 59°56' E 030°16'0 0.0
2016-Jul-21 05:32N 59°56' E 030°16'0 0.0
2016-Jul-21 04:33N 59°56' E 030°16'4 3.7
2016-Jul-21 03:34N 59°53' E 030°11'10 9.8
2016-Jul-21 02:33N 59°57' E 029°53'1111.0
2016-Jul-21 01:33N 60°01' E 029°33'9 8.1
2016-Jul-21 00:30N 60°02' E 029°16'1313.6
2016-Jul-20 23:33N 60°02' E 028°50'1514.8
2016-Jul-20 22:33N 60°05' E 028°21'1515.4
2016-Jul-20 21:33N 60°10' E 027°52'1515.0
2016-Jul-20 20:33N 60°04' E 027°24'2014.9
2016-Jul-20 19:14N 59°59' E 026°46'57 4.8
2016-Jul-20 07:21N 59°48' E 024°55'2915.9
2016-Jul-20 05:31N 59°40' E 023°59'1515.9
2016-Jul-20 04:34N 59°34' E 023°31'1616.0
2016-Jul-20 03:34N 59°29' E 023°02'14713.3
2016-Jul-19 16:26N 59°20' E 018°12'4 4.1
2016-Jul-19 15:31N 59°19' E 018°05'0 0.0
2016-Jul-19 14:31N 59°19' E 018°05'0 0.0
2016-Jul-19 13:31N 59°19' E 018°05'0 0.0
2016-Jul-19 12:31N 59°19' E 018°05'0 0.0
2016-Jul-19 11:31N 59°19' E 018°05'0 0.0
2016-Jul-19 10:31N 59°19' E 018°05'0 0.0
2016-Jul-19 09:31N 59°19' E 018°05'0 0.0
2016-Jul-19 08:31N 59°19' E 018°05'0 0.0
2016-Jul-19 07:31N 59°19' E 018°05'233 7.5
2016-Jul-18 00:32N 55°41' E 015°33'1615.8
2016-Jul-17 23:33N 55°33' E 015°09'1616.0
2016-Jul-17 22:33N 55°26' E 014°44'1615.9
2016-Jul-17 21:33N 55°14' E 014°25'1514.6
2016-Jul-17 20:33N 55°10' E 014°00'2216.3
2016-Jul-17 19:11N 55°10' E 013°21'1016.4
2016-Jul-17 18:33N 55°13' E 013°04'1615.8
2016-Jul-17 17:33N 55°18' E 012°38'1414.1
2016-Jul-17 16:33N 55°32' E 012°42'1211.6
2016-Jul-17 15:34N 55°44' E 012°40'3 2.7
2016-Jul-17 14:33N 55°42' E 012°36'0 0.0
2016-Jul-17 13:33N 55°42' E 012°36'0 0.0
2016-Jul-17 12:33N 55°42' E 012°36'0 0.0
2016-Jul-17 11:33N 55°42' E 012°36'0 0.0
2016-Jul-17 10:33N 55°42' E 012°36'0 0.4
2016-Jul-17 09:33N 55°42' E 012°36'7 6.7
2016-Jul-17 08:33N 55°36' E 012°42'1110.6
2016-Jul-17 07:33N 55°26' E 012°41'1515.2
2016-Jul-17 06:33N 55°10' E 012°41'  
Track history (hours):
 
Tides and Currents Weather Stations Pressure Air Temp Water Temp Dewpoint Dewpoint Depression Visibility Wind Speed Wind Dir Waves Ship Positions

Voyager

Last reported at 2016-Jul-27 05:25 UTC. Time now 2016-Jul-27 07:52 UTC.
Position N 54°18' E 009°42'.

Length 151 m; draft 6.1 m.

Type: Ship. MMSI: 309695000.

Date/timePositionNaut miles runAvg speedWind from/ knotsBaromVisibWave heightAir tempDewpointWater temp
2016-Jul-27 05:25N 54°18' E 009°42'7 7.1
2016-Jul-27 04:25N 54°21' E 009°53'6 7.0
2016-Jul-27 03:34N 54°22' E 010°03'3 3.3
2016-Jul-27 02:33N 54°22' E 010°09'9 9.2
2016-Jul-27 01:33N 54°30' E 010°17'1212.2
2016-Jul-27 00:33N 54°35' E 010°36'1413.6
2016-Jul-26 23:34N 54°36' E 010°60'1313.2
2016-Jul-26 22:33N 54°33' E 011°22'1414.1
2016-Jul-26 21:34N 54°27' E 011°44'1414.1
2016-Jul-26 20:34N 54°17' E 012°00'7 3.4
2016-Jul-26 18:33N 54°11' E 012°06'0 0.0
2016-Jul-26 17:33N 54°11' E 012°06'0 0.0
2016-Jul-26 16:33N 54°11' E 012°06'0 0.0
2016-Jul-26 15:30N 54°11' E 012°06'0 0.0
2016-Jul-26 14:27N 54°11' E 012°06'0 0.0
2016-Jul-26 12:33N 54°11' E 012°06'0 0.0
2016-Jul-26 11:33N 54°11' E 012°06'0 0.0
2016-Jul-26 07:33N 54°11' E 012°06'3 2.5
2016-Jul-26 06:26N 54°13' E 012°03'1010.9
2016-Jul-26 05:34N 54°22' E 011°59'1211.7
2016-Jul-26 04:33N 54°31' E 012°11'1513.3
2016-Jul-26 03:24N 54°43' E 012°29'1515.0
2016-Jul-26 02:24N 54°50' E 012°52'1315.7
2016-Jul-26 01:33N 54°53' E 013°14'1616.4
2016-Jul-26 00:33N 54°47' E 013°41'1716.6
2016-Jul-25 23:33N 54°41' E 014°08'1616.3
2016-Jul-25 22:34N 54°39' E 014°36'1716.5
2016-Jul-25 21:33N 54°41' E 015°04'1616.4
2016-Jul-25 20:33N 54°44' E 015°32'1616.4
2016-Jul-25 19:33N 54°46' E 016°00'1616.2
2016-Jul-25 18:33N 54°49' E 016°28'1616.1
2016-Jul-25 17:33N 54°52' E 016°55'1616.4
2016-Jul-25 16:33N 54°56' E 017°23'1616.3
2016-Jul-25 15:34N 54°59' E 017°51'1716.6
2016-Jul-25 14:33N 54°60' E 018°20'1616.2
2016-Jul-25 13:33N 54°52' E 018°45'1414.2
2016-Jul-25 12:33N 54°40' E 018°57'1615.8
2016-Jul-25 11:33N 54°27' E 018°41'3 2.7
2016-Jul-25 10:32N 54°24' E 018°40'0 0.0
2016-Jul-25 09:32N 54°24' E 018°40'0 0.0
2016-Jul-25 08:32N 54°24' E 018°40'0 0.0
2016-Jul-25 07:32N 54°24' E 018°40'0 0.0
2016-Jul-25 06:32N 54°24' E 018°40'0 0.0
2016-Jul-25 05:32N 54°24' E 018°40'0 0.0
2016-Jul-25 04:32N 54°24' E 018°40'2 1.8
2016-Jul-25 03:34N 54°26' E 018°39'9 8.6
2016-Jul-25 02:33N 54°33' E 018°48'1010.0
2016-Jul-25 01:33N 54°41' E 018°57'1110.7
2016-Jul-25 00:33N 54°51' E 019°04'1110.6
2016-Jul-24 23:33N 55°02' E 019°08'1110.8
2016-Jul-24 22:33N 55°12' E 019°14'1110.9
2016-Jul-24 21:32N 55°22' E 019°20'1211.1
2016-Jul-24 20:28N 55°34' E 019°26'1010.9
2016-Jul-24 19:32N 55°43' E 019°32'23611.2
2016-Jul-23 22:33N 59°23' E 022°12'1111.6
2016-Jul-23 21:33N 59°29' E 022°31'1111.4
2016-Jul-23 20:33N 59°34' E 022°51'1111.5
2016-Jul-23 19:33N 59°37' E 023°13'10 9.7
2016-Jul-23 18:33N 59°32' E 023°30'2811.4
2016-Jul-23 16:06N 59°30' E 024°25'5 9.3
2016-Jul-23 15:34N 59°30' E 024°35'7 6.5
2016-Jul-23 14:33N 59°27' E 024°46'0 0.0
2016-Jul-23 13:27N 59°27' E 024°46'0 0.0
2016-Jul-23 12:03N 59°27' E 024°46'0 0.0
2016-Jul-23 11:27N 59°27' E 024°46'0 0.0
2016-Jul-23 10:27N 59°27' E 024°46'0 0.0
2016-Jul-23 09:33N 59°27' E 024°46'0 0.0
2016-Jul-23 08:27N 59°27' E 024°46'0 0.0
2016-Jul-23 07:33N 59°27' E 024°46'2 1.8
2016-Jul-23 06:34N 59°29' E 024°45'5212.5
2016-Jul-23 02:23N 59°59' E 026°10'1315.8
2016-Jul-23 01:33N 60°01' E 026°35'1715.4
2016-Jul-23 00:29N 60°01' E 027°08'1516.0
2016-Jul-22 23:31N 60°09' E 027°35'1415.0
2016-Jul-22 22:33N 60°10' E 028°03'1515.4
2016-Jul-22 21:33N 60°03' E 028°31'1615.7
2016-Jul-22 20:33N 60°03' E 029°03'2013.8
2016-Jul-22 19:05N 59°59' E 029°43'5 9.3
2016-Jul-22 18:33N 59°57' E 029°52'10 9.9
2016-Jul-22 17:33N 59°53' E 030°10'4 4.1
2016-Jul-22 16:33N 59°56' E 030°17'0 0.1
2016-Jul-22 15:32N 59°56' E 030°16'0 0.0
2016-Jul-22 14:32N 59°56' E 030°16'0 0.0
2016-Jul-22 13:32N 59°56' E 030°16'0 0.0
2016-Jul-22 12:32N 59°56' E 030°16'0 0.0
2016-Jul-22 11:32N 59°56' E 030°16'0 0.0
2016-Jul-22 10:32N 59°56' E 030°16'0 0.0
2016-Jul-22 09:32N 59°56' E 030°16'0 0.0
2016-Jul-22 08:32N 59°56' E 030°16'0 0.0
2016-Jul-22 07:32N 59°56' E 030°16'0 0.0
2016-Jul-22 04:32N 59°56' E 030°16'0 0.0
2016-Jul-22 03:32N 59°56' E 030°16'0 0.0
2016-Jul-22 02:32N 59°56' E 030°16'0 0.0
2016-Jul-22 01:32N 59°56' E 030°16'0 0.0
2016-Jul-22 00:32N 59°56' E 030°16'0 0.0
2016-Jul-21 23:32N 59°56' E 030°16'0 0.0
2016-Jul-21 22:32N 59°56' E 030°16'0 0.0
2016-Jul-21 21:32N 59°56' E 030°16'0 0.0
2016-Jul-21 20:32N 59°56' E 030°16'0 0.0
2016-Jul-21 19:32N 59°56' E 030°16'0 0.0
2016-Jul-21 18:32N 59°56' E 030°16'0 0.0
2016-Jul-21 17:32N 59°56' E 030°16'0 0.0
2016-Jul-21 16:32N 59°56' E 030°16'0 0.0
2016-Jul-21 15:32N 59°56' E 030°16'0 0.0
2016-Jul-21 14:32N 59°56' E 030°16'0 0.0
2016-Jul-21 13:32N 59°56' E 030°16'0 0.0
2016-Jul-21 12:32N 59°56' E 030°16'0 0.0
2016-Jul-21 11:32N 59°56' E 030°16'0 0.0
2016-Jul-21 10:32N 59°56' E 030°16'0 0.0
2016-Jul-21 09:32N 59°56' E 030°16'0 0.0
2016-Jul-21 08:32N 59°56' E 030°16'0 0.0
2016-Jul-21 07:32N 59°56' E 030°16'0 0.0
2016-Jul-21 06:32N 59°56' E 030°16'0 0.0
2016-Jul-21 05:32N 59°56' E 030°16'0 0.0
2016-Jul-21 04:33N 59°56' E 030°16'4 3.7
2016-Jul-21 03:34N 59°53' E 030°11'10 9.8
2016-Jul-21 02:33N 59°57' E 029°53'1111.0
2016-Jul-21 01:33N 60°01' E 029°33'9 8.1
2016-Jul-21 00:30N 60°02' E 029°16'1313.6
2016-Jul-20 23:33N 60°02' E 028°50'1514.8
2016-Jul-20 22:33N 60°05' E 028°21'1515.4
2016-Jul-20 21:33N 60°10' E 027°52'1515.0
2016-Jul-20 20:33N 60°04' E 027°24'2014.9
2016-Jul-20 19:14N 59°59' E 026°46'57 4.8
2016-Jul-20 07:21N 59°48' E 024°55'2915.9
2016-Jul-20 05:31N 59°40' E 023°59'1515.9
2016-Jul-20 04:34N 59°34' E 023°31'1616.0
2016-Jul-20 03:34N 59°29' E 023°02'14713.3
2016-Jul-19 16:26N 59°20' E 018°12'4 4.1
2016-Jul-19 15:31N 59°19' E 018°05'0 0.0
2016-Jul-19 14:31N 59°19' E 018°05'0 0.0
2016-Jul-19 13:31N 59°19' E 018°05'0 0.0
2016-Jul-19 12:31N 59°19' E 018°05'0 0.0
2016-Jul-19 11:31N 59°19' E 018°05'0 0.0
2016-Jul-19 10:31N 59°19' E 018°05'0 0.0
2016-Jul-19 09:31N 59°19' E 018°05'0 0.0
2016-Jul-19 08:31N 59°19' E 018°05'0 0.0
2016-Jul-19 07:31N 59°19' E 018°05'233 7.5
2016-Jul-18 00:32N 55°41' E 015°33'1615.8
2016-Jul-17 23:33N 55°33' E 015°09'1616.0
2016-Jul-17 22:33N 55°26' E 014°44'1615.9
2016-Jul-17 21:33N 55°14' E 014°25'1514.6
2016-Jul-17 20:33N 55°10' E 014°00'2216.3
2016-Jul-17 19:11N 55°10' E 013°21'1016.4
2016-Jul-17 18:33N 55°13' E 013°04'1615.8
2016-Jul-17 17:33N 55°18' E 012°38'1414.1
2016-Jul-17 16:33N 55°32' E 012°42'1211.6
2016-Jul-17 15:34N 55°44' E 012°40'3 2.7
2016-Jul-17 14:33N 55°42' E 012°36'0 0.0
2016-Jul-17 13:33N 55°42' E 012°36'0 0.0
2016-Jul-17 12:33N 55°42' E 012°36'0 0.0
2016-Jul-17 11:33N 55°42' E 012°36'0 0.0
2016-Jul-17 10:33N 55°42' E 012°36'0 0.4
2016-Jul-17 09:33N 55°42' E 012°36'7 6.7
2016-Jul-17 08:33N 55°36' E 012°42'1110.6
2016-Jul-17 07:33N 55°26' E 012°41'1515.2
2016-Jul-17 06:33N 55°10' E 012°41'  

Dump ship's entire track history